createdAt,value
2018-12-27T00:00:06.952Z,7.87
2018-12-27T00:00:44.960Z,7.50
2018-12-27T00:01:22.558Z,7.08
2018-12-27T00:02:00.254Z,7.08
2018-12-27T00:02:38.453Z,6.90
2018-12-27T00:03:16.550Z,6.80
2018-12-27T00:03:54.635Z,6.58
2018-12-27T00:04:31.766Z,7.33
2018-12-27T00:05:09.572Z,7.95
2018-12-27T00:05:47.334Z,7.05
2018-12-27T00:06:24.756Z,6.30
2018-12-27T00:07:02.188Z,7.25
2018-12-27T00:07:39.850Z,6.53
2018-12-27T00:08:17.376Z,6.40
2018-12-27T00:08:54.763Z,6.08
2018-12-27T00:09:32.144Z,6.12
2018-12-27T00:10:09.626Z,5.70
2018-12-27T00:10:46.995Z,5.92
2018-12-27T00:11:24.949Z,6.25
2018-12-27T00:12:02.667Z,7.00
2018-12-27T00:12:40.412Z,6.20
2018-12-27T00:13:18.120Z,6.92
2018-12-27T00:13:55.527Z,6.70
2018-12-27T00:14:33.190Z,6.95
2018-12-27T00:15:10.741Z,6.78
2018-12-27T00:15:48.657Z,6.45
2018-12-27T00:16:26.714Z,6.90
2018-12-27T00:17:04.434Z,6.25
2018-12-27T00:17:42.213Z,7.60
2018-12-27T00:18:20.256Z,6.28
2018-12-27T00:18:58.004Z,6.95
2018-12-27T00:19:35.861Z,6.25
2018-12-27T00:20:13.470Z,7.42
2018-12-27T00:20:51.506Z,6.67
2018-12-27T00:21:28.636Z,6.80
2018-12-27T00:22:06.729Z,7.60
2018-12-27T00:22:44.104Z,6.30
2018-12-27T00:23:21.796Z,7.25
2018-12-27T00:23:59.464Z,6.62
2018-12-27T00:24:37.124Z,6.95
2018-12-27T00:25:15.226Z,6.70
2018-12-27T00:25:52.916Z,6.67
2018-12-27T00:26:30.641Z,7.50
2018-12-27T00:27:08.406Z,6.78
2018-12-27T00:27:46.396Z,7.80
2018-12-27T00:28:24.386Z,7.08
2018-12-27T00:29:02.136Z,6.55
2018-12-27T00:29:39.836Z,6.17
2018-12-27T00:30:17.761Z,7.17
2018-12-27T00:30:55.800Z,7.03
2018-12-27T00:31:33.676Z,7.72
2018-12-27T00:32:11.095Z,6.85
2018-12-27T00:32:48.982Z,7.45
2018-12-27T00:33:27.120Z,7.35
2018-12-27T00:34:04.325Z,8.18
2018-12-27T00:34:41.832Z,7.58
2018-12-27T00:35:19.700Z,7.28
2018-12-27T00:35:57.266Z,7.60
2018-12-27T00:36:34.844Z,6.90
2018-12-27T00:37:12.462Z,7.28
2018-12-27T00:37:49.802Z,6.85
2018-12-27T00:38:27.752Z,7.42
2018-12-27T00:39:06.315Z,7.17
2018-12-27T00:39:44.140Z,6.97
2018-12-27T00:40:22.072Z,6.33
2018-12-27T00:41:00.057Z,6.60
2018-12-27T00:41:37.355Z,7.58
2018-12-27T00:42:14.912Z,7.40
2018-12-27T00:42:52.413Z,6.70
2018-12-27T00:43:30.218Z,7.60
2018-12-27T00:44:08.508Z,6.92
2018-12-27T00:44:46.068Z,6.87
2018-12-27T00:45:23.349Z,7.42
2018-12-27T00:46:01.156Z,7.20
2018-12-27T00:46:38.964Z,6.97
2018-12-27T00:47:16.510Z,7.50
2018-12-27T00:47:54.483Z,7.55
2018-12-27T00:48:31.394Z,6.70
2018-12-27T00:49:09.180Z,7.10
2018-12-27T00:49:46.504Z,7.40
2018-12-27T00:50:24.114Z,7.50
2018-12-27T00:51:02.068Z,8.05
2018-12-27T00:51:40.310Z,6.60
2018-12-27T00:52:17.960Z,6.83
2018-12-27T00:52:55.757Z,7.53
2018-12-27T00:53:33.738Z,6.83
2018-12-27T00:54:11.231Z,6.42
2018-12-27T00:54:48.488Z,6.80
2018-12-27T00:55:26.068Z,7.60
2018-12-27T00:56:03.956Z,8.38
2018-12-27T00:56:41.180Z,7.37
2018-12-27T00:57:19.053Z,6.85
2018-12-27T00:57:56.616Z,7.47
2018-12-27T00:58:34.533Z,6.70
2018-12-27T00:59:12.170Z,6.70
2018-12-27T00:59:50.408Z,6.70
2018-12-27T01:00:28.584Z,7.08
2018-12-27T01:01:06.186Z,6.75
2018-12-27T01:01:43.417Z,7.70
2018-12-27T01:02:21.099Z,7.05
2018-12-27T01:02:59.021Z,7.50
2018-12-27T01:03:36.914Z,6.97
2018-12-27T01:04:14.551Z,7.53
2018-12-27T01:04:52.068Z,6.55
2018-12-27T01:05:30.230Z,6.40
2018-12-27T01:06:08.213Z,7.15
2018-12-27T01:06:45.908Z,7.70
2018-12-27T01:07:23.968Z,6.50
2018-12-27T01:08:01.904Z,7.30
2018-12-27T01:08:39.126Z,6.65
2018-12-27T01:09:16.814Z,6.92
2018-12-27T01:09:53.985Z,6.67
2018-12-27T01:10:31.150Z,6.95
2018-12-27T01:11:09.364Z,7.30
2018-12-27T01:11:47.497Z,6.37
2018-12-27T01:12:25.193Z,6.70
2018-12-27T01:13:03.057Z,7.05
2018-12-27T01:13:41.274Z,7.25
2018-12-27T01:14:18.816Z,6.78
2018-12-27T01:14:56.413Z,7.22
2018-12-27T01:15:34.550Z,6.67
2018-12-27T01:16:12.678Z,6.65
2018-12-27T01:16:49.600Z,7.40
2018-12-27T01:17:27.796Z,6.37
2018-12-27T01:18:05.688Z,7.22
2018-12-27T01:18:43.629Z,6.15
2018-12-27T01:19:21.512Z,6.33
2018-12-27T01:19:59.806Z,6.97
2018-12-27T01:20:37.706Z,7.20
2018-12-27T01:21:15.628Z,6.80
2018-12-27T01:21:52.774Z,6.28
2018-12-27T01:22:30.296Z,6.72
2018-12-27T01:23:08.233Z,6.92
2018-12-27T01:23:45.841Z,6.47
2018-12-27T01:24:24.068Z,7.20
2018-12-27T01:25:02.356Z,7.50
2018-12-27T01:25:39.898Z,7.80
2018-12-27T01:26:17.788Z,7.50
2018-12-27T01:26:55.912Z,6.42
2018-12-27T01:27:33.462Z,7.65
2018-12-27T01:28:11.280Z,7.58
2018-12-27T01:28:49.681Z,7.80
2018-12-27T01:29:27.636Z,7.37
2018-12-27T01:30:05.866Z,7.42
2018-12-27T01:30:43.414Z,7.58
2018-12-27T01:31:21.315Z,7.58
2018-12-27T01:31:59.540Z,6.97
2018-12-27T01:32:36.795Z,6.83
2018-12-27T01:33:18.658Z,6.62
2018-12-27T01:33:54.199Z,7.70
2018-12-27T01:34:31.868Z,7.03
2018-12-27T01:35:09.746Z,7.95
2018-12-27T01:35:47.602Z,8.65
2018-12-27T01:36:25.778Z,8.15
2018-12-27T01:37:03.729Z,7.22
2018-12-27T01:37:40.944Z,8.70
2018-12-27T01:38:18.488Z,8.63
2018-12-27T01:38:56.159Z,8.45
2018-12-27T01:39:34.102Z,9.35
2018-12-27T01:40:12.333Z,8.50
2018-12-27T01:40:50.228Z,8.85
2018-12-27T01:41:28.208Z,9.58
2018-12-27T01:42:05.808Z,9.60
2018-12-27T01:42:43.964Z,10.80
2018-12-27T01:43:22.232Z,9.05
2018-12-27T01:43:59.916Z,9.98
2018-12-27T01:44:37.810Z,9.50
2018-12-27T01:45:15.720Z,9.50
2018-12-27T01:45:53.558Z,10.20
2018-12-27T01:46:31.477Z,10.43
2018-12-27T01:47:09.357Z,10.00
2018-12-27T01:47:47.040Z,10.00
2018-12-27T01:48:24.692Z,9.63
2018-12-27T01:49:01.947Z,11.30
2018-12-27T01:49:39.888Z,10.55
2018-12-27T01:50:18.108Z,11.25
2018-12-27T01:50:55.966Z,10.98
2018-12-27T01:51:33.840Z,11.60
2018-12-27T01:52:10.942Z,11.25
2018-12-27T01:52:48.482Z,11.45
2018-12-27T01:53:26.632Z,11.25
2018-12-27T01:54:04.159Z,11.57
2018-12-27T01:54:42.325Z,11.95
2018-12-27T01:55:20.547Z,11.25
2018-12-27T01:55:58.237Z,11.30
2018-12-27T01:56:36.554Z,12.45
2018-12-27T01:57:14.219Z,13.03
2018-12-27T01:57:51.820Z,10.98
2018-12-27T01:58:29.678Z,12.18
2018-12-27T01:59:07.573Z,11.78
2018-12-27T01:59:45.845Z,11.33
2018-12-27T02:00:29.390Z,11.75
2018-12-27T02:01:07.711Z,11.08
2018-12-27T02:01:44.982Z,10.82
2018-12-27T02:02:22.636Z,10.78
2018-12-27T02:03:00.503Z,11.03
2018-12-27T02:03:38.651Z,11.28
2018-12-27T02:04:16.554Z,11.18
2018-12-27T02:04:54.677Z,12.25
2018-12-27T02:05:32.473Z,10.93
2018-12-27T02:06:10.417Z,11.12
2018-12-27T02:06:48.383Z,10.25
2018-12-27T02:07:26.261Z,10.90
2018-12-27T02:08:04.201Z,10.75
2018-12-27T02:08:42.457Z,10.40
2018-12-27T02:09:20.435Z,11.97
2018-12-27T02:09:57.397Z,11.40
2018-12-27T02:10:35.623Z,10.93
2018-12-27T02:11:13.595Z,11.28
2018-12-27T02:11:51.278Z,10.80
2018-12-27T02:12:29.164Z,10.53
2018-12-27T02:13:06.950Z,9.78
2018-12-27T02:13:44.274Z,10.98
2018-12-27T02:14:22.148Z,10.82
2018-12-27T02:14:59.999Z,11.57
2018-12-27T02:15:37.585Z,10.58
2018-12-27T02:16:15.165Z,11.38
2018-12-27T02:16:53.376Z,10.80
2018-12-27T02:17:30.917Z,11.80
2018-12-27T02:18:09.184Z,11.48
2018-12-27T02:18:47.462Z,11.33
2018-12-27T02:19:25.321Z,10.85
2018-12-27T02:20:03.565Z,11.30
2018-12-27T02:20:41.172Z,10.55
2018-12-27T02:21:19.005Z,10.15
2018-12-27T02:21:56.667Z,9.13
2018-12-27T02:22:34.363Z,11.10
2018-12-27T02:23:11.940Z,10.18
2018-12-27T02:23:49.584Z,10.28
2018-12-27T02:24:27.451Z,10.72
2018-12-27T02:25:05.727Z,9.78
2018-12-27T02:25:43.340Z,10.70
2018-12-27T02:26:21.270Z,10.03
2018-12-27T02:26:59.155Z,10.43
2018-12-27T02:27:37.096Z,10.20
2018-12-27T02:28:14.355Z,10.75
2018-12-27T02:28:52.482Z,9.50
2018-12-27T02:29:30.444Z,10.05
2018-12-27T02:30:08.285Z,10.88
2018-12-27T02:30:45.811Z,10.68
2018-12-27T02:31:23.856Z,10.30
2018-12-27T02:32:01.980Z,10.45
2018-12-27T02:32:39.462Z,10.70
2018-12-27T02:33:17.014Z,11.12
2018-12-27T02:33:54.597Z,10.30
2018-12-27T02:34:32.476Z,10.53
2018-12-27T02:35:10.377Z,10.68
2018-12-27T02:35:48.266Z,11.75
2018-12-27T02:36:26.244Z,10.28
2018-12-27T02:37:03.851Z,11.45
2018-12-27T02:37:41.761Z,10.30
2018-12-27T02:38:19.713Z,8.90
2018-12-27T02:38:57.826Z,9.83
2018-12-27T02:39:35.895Z,9.48
2018-12-27T02:40:13.763Z,11.03
2018-12-27T02:40:51.362Z,10.45
2018-12-27T02:41:28.948Z,10.23
2018-12-27T02:42:06.532Z,10.72
2018-12-27T02:42:44.455Z,10.68
2018-12-27T02:43:22.320Z,10.72
2018-12-27T02:43:59.958Z,10.70
2018-12-27T02:44:37.251Z,9.43
2018-12-27T02:45:15.588Z,9.95
2018-12-27T02:45:53.795Z,10.25
2018-12-27T02:46:31.409Z,10.40
2018-12-27T02:47:09.325Z,9.33
2018-12-27T02:47:47.536Z,10.53
2018-12-27T02:48:25.431Z,10.63
2018-12-27T02:49:03.222Z,10.70
2018-12-27T02:49:41.061Z,10.98
2018-12-27T02:50:18.677Z,9.65
2018-12-27T02:50:56.286Z,10.35
2018-12-27T02:51:34.339Z,10.55
2018-12-27T02:52:12.261Z,9.83
2018-12-27T02:52:50.112Z,10.95
2018-12-27T02:53:28.237Z,11.10
2018-12-27T02:54:06.101Z,10.55
2018-12-27T02:54:44.314Z,9.58
2018-12-27T02:55:21.974Z,10.08
2018-12-27T02:55:59.945Z,9.93
2018-12-27T02:56:37.664Z,10.35
2018-12-27T02:57:15.521Z,10.55
2018-12-27T02:57:53.769Z,11.05
2018-12-27T02:58:31.651Z,9.73
2018-12-27T02:59:09.611Z,10.90
2018-12-27T02:59:47.297Z,10.40
2018-12-27T03:00:25.490Z,10.72
2018-12-27T03:01:02.783Z,11.68
2018-12-27T03:01:40.865Z,10.35
2018-12-27T03:02:18.855Z,10.00
2018-12-27T03:02:56.770Z,10.30
2018-12-27T03:03:34.438Z,11.35
2018-12-27T03:04:12.302Z,10.60
2018-12-27T03:04:49.991Z,11.50
2018-12-27T03:05:27.585Z,10.85
2018-12-27T03:06:05.727Z,10.58
2018-12-27T03:06:43.021Z,11.00
2018-12-27T03:07:21.191Z,10.85
2018-12-27T03:07:59.108Z,11.83
2018-12-27T03:08:37.127Z,10.60
2018-12-27T03:09:15.270Z,10.68
2018-12-27T03:09:52.905Z,11.22
2018-12-27T03:10:30.805Z,11.55
2018-12-27T03:11:08.378Z,10.80
2018-12-27T03:11:46.313Z,11.10
2018-12-27T03:12:24.133Z,10.95
2018-12-27T03:13:02.265Z,11.10
2018-12-27T03:13:39.513Z,11.08
2018-12-27T03:14:17.530Z,11.97
2018-12-27T03:14:55.132Z,13.08
2018-12-27T03:15:33.016Z,12.15
2018-12-27T03:16:11.214Z,11.15
2018-12-27T03:16:49.458Z,11.60
2018-12-27T03:17:27.095Z,11.70
2018-12-27T03:18:04.979Z,11.80
2018-12-27T03:18:43.096Z,11.38
2018-12-27T03:19:20.371Z,12.18
2018-12-27T03:19:58.396Z,11.45
2018-12-27T03:20:36.635Z,11.15
2018-12-27T03:21:14.319Z,11.28
2018-12-27T03:21:52.377Z,11.73
2018-12-27T03:22:30.283Z,10.43
2018-12-27T03:23:08.486Z,10.75
2018-12-27T03:23:46.038Z,10.55
2018-12-27T03:24:24.021Z,11.88
2018-12-27T03:25:01.304Z,10.75
2018-12-27T03:25:39.209Z,12.03
2018-12-27T03:26:17.295Z,10.68
2018-12-27T03:26:55.417Z,10.93
2018-12-27T03:27:33.736Z,11.12
2018-12-27T03:28:11.599Z,10.80
2018-12-27T03:28:49.666Z,10.90
2018-12-27T03:29:26.923Z,11.00
2018-12-27T03:30:05.075Z,10.45
2018-12-27T03:30:42.974Z,10.90
2018-12-27T03:31:20.585Z,10.78
2018-12-27T03:31:57.890Z,10.23
2018-12-27T03:32:35.133Z,9.90
2018-12-27T03:33:12.423Z,10.38
2018-12-27T03:33:52.815Z,11.33
2018-12-27T03:34:30.130Z,10.13
2018-12-27T03:35:08.035Z,10.90
2018-12-27T03:35:46.159Z,10.65
2018-12-27T03:36:23.950Z,11.08
2018-12-27T03:37:01.818Z,11.18
2018-12-27T03:37:39.977Z,10.45
2018-12-27T03:38:16.917Z,9.98
2018-12-27T03:38:54.525Z,10.08
2018-12-27T03:39:32.017Z,10.32
2018-12-27T03:40:09.948Z,10.98
2018-12-27T03:40:47.885Z,10.93
2018-12-27T03:41:25.789Z,10.72
2018-12-27T03:42:04.001Z,10.30
2018-12-27T03:42:41.853Z,9.18
2018-12-27T03:43:19.234Z,10.38
2018-12-27T03:43:57.221Z,10.30
2018-12-27T03:44:34.404Z,10.13
2018-12-27T03:45:11.975Z,10.00
2018-12-27T03:45:49.499Z,10.05
2018-12-27T03:46:27.481Z,11.45
2018-12-27T03:47:05.462Z,9.60
2018-12-27T03:47:43.629Z,10.08
2018-12-27T03:48:21.754Z,10.95
2018-12-27T03:48:59.966Z,10.93
2018-12-27T03:49:37.251Z,10.45
2018-12-27T03:50:15.525Z,11.30
2018-12-27T03:50:53.301Z,10.78
2018-12-27T03:51:30.550Z,10.40
2018-12-27T03:52:08.151Z,10.82
2018-12-27T03:52:45.784Z,10.70
2018-12-27T03:53:23.395Z,9.98
2018-12-27T03:54:01.337Z,11.57
2018-12-27T03:54:39.574Z,10.70
2018-12-27T03:55:17.725Z,11.12
2018-12-27T03:55:55.892Z,10.10
2018-12-27T03:56:33.789Z,10.53
2018-12-27T03:57:11.678Z,10.95
2018-12-27T03:57:49.560Z,9.53
2018-12-27T03:58:27.212Z,10.80
2018-12-27T03:59:05.052Z,11.48
2018-12-27T03:59:42.632Z,10.08
2018-12-27T04:00:20.570Z,11.12
2018-12-27T04:00:58.478Z,11.15
2018-12-27T04:01:36.362Z,11.25
2018-12-27T04:02:13.631Z,10.65
2018-12-27T04:02:51.459Z,10.32
2018-12-27T04:03:48.131Z,9.95
2018-12-27T04:04:26.266Z,10.82
2018-12-27T04:05:04.084Z,10.15
2018-12-27T04:05:41.963Z,9.38
2018-12-27T04:06:19.136Z,10.80
2018-12-27T04:06:57.099Z,9.55
2018-12-27T04:07:34.927Z,10.48
2018-12-27T04:08:13.224Z,9.35
2018-12-27T04:08:51.159Z,9.80
2018-12-27T04:09:29.356Z,10.18
2018-12-27T04:10:06.916Z,10.90
2018-12-27T04:10:44.810Z,8.90
2018-12-27T04:11:22.460Z,10.45
2018-12-27T04:12:00.199Z,10.00
2018-12-27T04:12:37.710Z,10.03
2018-12-27T04:13:14.881Z,9.85
2018-12-27T04:13:52.528Z,9.65
2018-12-27T04:14:30.411Z,9.38
2018-12-27T04:15:11.076Z,9.78
2018-12-27T04:15:48.780Z,10.08
2018-12-27T04:16:26.546Z,10.85
2018-12-27T04:17:04.002Z,10.15
2018-12-27T04:17:41.386Z,10.03
2018-12-27T04:18:19.161Z,9.53
2018-12-27T04:18:56.486Z,9.58
2018-12-27T04:19:33.518Z,10.10
2018-12-27T04:20:10.880Z,9.68
2018-12-27T04:20:48.465Z,11.50
2018-12-27T04:21:26.292Z,9.18
2018-12-27T04:22:07.257Z,9.93
2018-12-27T04:22:44.936Z,9.80
2018-12-27T04:23:23.197Z,9.43
2018-12-27T04:24:00.786Z,9.83
2018-12-27T04:24:38.889Z,9.75
2018-12-27T04:25:16.441Z,9.80
2018-12-27T04:25:53.924Z,10.80
2018-12-27T04:26:31.736Z,10.05
2018-12-27T04:27:09.735Z,11.20
2018-12-27T04:27:46.881Z,10.82
2018-12-27T04:28:24.668Z,11.68
2018-12-27T04:29:02.083Z,10.32
2018-12-27T04:29:39.832Z,10.60
2018-12-27T04:30:17.706Z,10.28
2018-12-27T04:30:55.503Z,10.95
2018-12-27T04:31:33.298Z,10.08
2018-12-27T04:32:10.873Z,11.25
2018-12-27T04:32:48.592Z,10.65
2018-12-27T04:33:27.784Z,10.45
2018-12-27T04:34:09.691Z,11.43
2018-12-27T04:34:45.550Z,10.75
2018-12-27T04:35:24.487Z,12.00
2018-12-27T04:36:02.349Z,11.10
2018-12-27T04:36:41.516Z,10.40
2018-12-27T04:37:19.092Z,10.93
2018-12-27T04:37:56.738Z,10.82
2018-12-27T04:38:34.575Z,11.12
2018-12-27T04:39:12.580Z,11.15
2018-12-27T04:39:50.281Z,11.28
2018-12-27T04:40:28.058Z,11.70
2018-12-27T04:41:06.104Z,12.53
2018-12-27T04:41:43.502Z,10.72
2018-12-27T04:42:21.461Z,10.93
2018-12-27T04:42:59.695Z,11.35
2018-12-27T04:43:37.587Z,11.53
2018-12-27T04:44:15.611Z,11.18
2018-12-27T04:44:53.354Z,10.65
2018-12-27T04:45:30.876Z,10.82
2018-12-27T04:46:09.054Z,11.80
2018-12-27T04:46:47.146Z,11.45
2018-12-27T04:47:25.215Z,10.72
2018-12-27T04:48:02.884Z,12.15
2018-12-27T04:48:40.412Z,11.10
2018-12-27T04:49:17.946Z,11.30
2018-12-27T04:49:56.562Z,11.35
2018-12-27T04:50:34.035Z,12.43
2018-12-27T04:51:11.750Z,11.30
2018-12-27T04:51:49.605Z,11.78
2018-12-27T04:52:27.526Z,12.70
2018-12-27T04:53:04.798Z,11.95
2018-12-27T04:53:42.249Z,11.90
2018-12-27T04:54:19.211Z,11.10
2018-12-27T04:54:57.236Z,12.23
2018-12-27T04:55:35.226Z,11.83
2018-12-27T04:56:13.240Z,12.10
2018-12-27T04:56:51.335Z,12.28
2018-12-27T04:57:29.121Z,11.57
2018-12-27T04:58:06.898Z,11.80
2018-12-27T04:58:44.892Z,12.13
2018-12-27T04:59:22.540Z,12.43
2018-12-27T05:00:00.347Z,13.43
2018-12-27T05:00:38.219Z,12.43
2018-12-27T05:01:15.380Z,11.93
2018-12-27T05:01:53.001Z,13.22
2018-12-27T05:02:30.389Z,12.93
2018-12-27T05:03:08.042Z,13.70
2018-12-27T05:03:45.593Z,12.40
2018-12-27T05:04:42.200Z,12.28
2018-12-27T05:05:19.711Z,12.73
2018-12-27T05:05:57.076Z,13.35
2018-12-27T05:06:35.228Z,13.13
2018-12-27T05:07:12.503Z,13.25
2018-12-27T05:07:50.060Z,13.25
2018-12-27T05:08:28.168Z,12.65
2018-12-27T05:09:07.597Z,13.50
2018-12-27T05:09:45.852Z,13.00
2018-12-27T05:10:24.130Z,12.40
2018-12-27T05:11:01.913Z,13.18
2018-12-27T05:11:39.414Z,12.60
2018-12-27T05:12:17.510Z,13.03
2018-12-27T05:12:55.608Z,13.75
2018-12-27T05:13:33.614Z,13.53
2018-12-27T05:14:10.414Z,13.43
2018-12-27T05:14:48.229Z,13.75
2018-12-27T05:15:25.422Z,12.85
2018-12-27T05:16:03.236Z,14.60
2018-12-27T05:16:40.410Z,13.62
2018-12-27T05:17:18.503Z,13.13
2018-12-27T05:17:55.938Z,12.58
2018-12-27T05:18:33.978Z,12.65
2018-12-27T05:19:11.402Z,13.98
2018-12-27T05:19:49.360Z,13.40
2018-12-27T05:20:27.178Z,13.98
2018-12-27T05:21:05.217Z,13.90
2018-12-27T05:21:43.060Z,13.50
2018-12-27T05:22:20.773Z,13.85
2018-12-27T05:22:58.569Z,14.40
2018-12-27T05:23:36.566Z,14.35
2018-12-27T05:24:14.436Z,13.32
2018-12-27T05:24:52.348Z,13.70
2018-12-27T05:25:30.186Z,13.90
2018-12-27T05:26:07.940Z,14.55
2018-12-27T05:26:46.115Z,13.10
2018-12-27T05:27:24.058Z,13.55
2018-12-27T05:28:01.837Z,14.25
2018-12-27T05:28:39.671Z,13.75
2018-12-27T05:29:17.513Z,14.28
2018-12-27T05:29:55.288Z,14.47
2018-12-27T05:30:33.385Z,13.98
2018-12-27T05:31:11.438Z,14.85
2018-12-27T05:31:49.520Z,13.90
2018-12-27T05:32:27.270Z,13.75
2018-12-27T05:33:05.499Z,14.50
2018-12-27T05:33:43.492Z,13.65
2018-12-27T05:34:26.171Z,15.28
2018-12-27T05:35:00.350Z,13.13
2018-12-27T05:35:37.465Z,14.80
2018-12-27T05:36:15.642Z,14.60
2018-12-27T05:36:53.810Z,13.68
2018-12-27T05:37:31.318Z,14.70
2018-12-27T05:38:09.119Z,15.50
2018-12-27T05:38:46.904Z,15.20
2018-12-27T05:39:24.588Z,14.50
2018-12-27T05:40:02.522Z,14.47
2018-12-27T05:40:40.042Z,15.35
2018-12-27T05:41:18.058Z,14.20
2018-12-27T05:41:55.832Z,15.83
2018-12-27T05:42:33.470Z,16.23
2018-12-27T05:43:11.162Z,15.20
2018-12-27T05:43:48.825Z,15.65
2018-12-27T05:44:26.605Z,15.70
2018-12-27T05:45:04.698Z,16.67
2018-12-27T05:45:42.448Z,15.95
2018-12-27T05:46:20.188Z,16.35
2018-12-27T05:46:58.212Z,16.35
2018-12-27T05:47:35.914Z,15.08
2018-12-27T05:48:13.545Z,15.35
2018-12-27T05:48:51.232Z,16.07
2018-12-27T05:49:28.396Z,14.47
2018-12-27T05:50:06.466Z,14.98
2018-12-27T05:50:44.265Z,15.75
2018-12-27T05:51:22.194Z,15.00
2018-12-27T05:52:00.228Z,14.83
2018-12-27T05:52:38.253Z,15.00
2018-12-27T05:53:15.956Z,15.48
2018-12-27T05:53:53.306Z,15.23
2018-12-27T05:54:30.686Z,14.33
2018-12-27T05:55:08.265Z,16.40
2018-12-27T05:55:45.926Z,16.07
2018-12-27T05:56:23.938Z,16.05
2018-12-27T05:57:02.032Z,16.50
2018-12-27T05:57:40.200Z,15.30
2018-12-27T05:58:17.713Z,14.45
2018-12-27T05:58:55.331Z,15.50
2018-12-27T05:59:32.715Z,16.10
2018-12-27T06:00:10.884Z,15.32
2018-12-27T06:00:47.990Z,16.48
2018-12-27T06:01:25.507Z,15.98
2018-12-27T06:02:03.098Z,15.08
2018-12-27T06:02:40.884Z,15.60
2018-12-27T06:03:18.501Z,16.93
2018-12-27T06:03:56.505Z,15.25
2018-12-27T06:04:34.595Z,15.30
2018-12-27T06:05:12.024Z,15.50
2018-12-27T06:05:50.214Z,17.42
2018-12-27T06:06:27.689Z,15.60
2018-12-27T06:07:04.889Z,14.98
2018-12-27T06:07:42.194Z,14.98
2018-12-27T06:08:19.568Z,14.70
2018-12-27T06:08:57.636Z,13.68
2018-12-27T06:09:35.199Z,14.83
2018-12-27T06:10:12.926Z,14.70
2018-12-27T06:10:49.949Z,16.17
2018-12-27T06:11:27.668Z,15.25
2018-12-27T06:12:05.235Z,15.48
2018-12-27T06:12:42.917Z,15.65
2018-12-27T06:13:20.495Z,14.53
2018-12-27T06:13:58.211Z,14.98
2018-12-27T06:14:35.893Z,14.53
2018-12-27T06:15:13.326Z,14.63
2018-12-27T06:15:51.230Z,13.75
2018-12-27T06:16:28.933Z,15.40
2018-12-27T06:17:06.465Z,14.33
2018-12-27T06:17:43.827Z,14.43
2018-12-27T06:18:21.556Z,14.80
2018-12-27T06:18:58.338Z,15.05
2018-12-27T06:19:35.402Z,14.95
2018-12-27T06:20:12.558Z,14.18
2018-12-27T06:20:50.003Z,14.80
2018-12-27T06:21:28.027Z,13.60
2018-12-27T06:22:05.832Z,14.78
2018-12-27T06:22:43.929Z,16.67
2018-12-27T06:23:21.615Z,14.47
2018-12-27T06:23:59.345Z,14.63
2018-12-27T06:24:37.389Z,14.50
2018-12-27T06:25:15.454Z,13.18
2018-12-27T06:25:53.219Z,13.90
2018-12-27T06:26:31.254Z,13.80
2018-12-27T06:27:09.065Z,14.50
2018-12-27T06:27:46.613Z,13.50
2018-12-27T06:28:24.057Z,14.47
2018-12-27T06:29:01.991Z,13.58
2018-12-27T06:29:39.904Z,15.40
2018-12-27T06:30:19.071Z,13.80
2018-12-27T06:30:56.799Z,13.90
2018-12-27T06:31:34.778Z,13.50
2018-12-27T06:32:12.441Z,14.98
2018-12-27T06:32:50.101Z,15.10
2018-12-27T06:33:27.773Z,14.18
2018-12-27T06:34:05.474Z,13.60
2018-12-27T06:34:43.469Z,12.58
2018-12-27T06:35:21.177Z,13.03
2018-12-27T06:35:58.609Z,13.65
2018-12-27T06:36:36.031Z,12.68
2018-12-27T06:37:13.929Z,12.85
2018-12-27T06:37:51.577Z,13.55
2018-12-27T06:38:28.963Z,13.88
2018-12-27T06:39:07.639Z,12.55
2018-12-27T06:39:45.560Z,12.15
2018-12-27T06:40:23.324Z,12.40
2018-12-27T06:41:00.427Z,11.85
2018-12-27T06:41:37.861Z,10.95
2018-12-27T06:42:15.658Z,11.73
2018-12-27T06:42:53.429Z,12.82
2018-12-27T06:43:31.123Z,12.43
2018-12-27T06:44:08.843Z,10.88
2018-12-27T06:44:46.207Z,11.48
2018-12-27T06:45:23.602Z,10.98
2018-12-27T06:46:01.284Z,11.00
2018-12-27T06:46:39.070Z,11.70
2018-12-27T06:47:16.941Z,10.72
2018-12-27T06:47:54.236Z,11.45
2018-12-27T06:48:31.969Z,9.93
2018-12-27T06:49:09.887Z,12.98
2018-12-27T06:49:47.640Z,11.78
2018-12-27T06:50:25.245Z,11.88
2018-12-27T06:51:02.885Z,11.80
2018-12-27T06:51:40.557Z,10.60
2018-12-27T06:52:18.282Z,11.80
2018-12-27T06:52:55.981Z,11.90
2018-12-27T06:53:33.377Z,11.50
2018-12-27T06:54:11.330Z,11.70
2018-12-27T06:54:49.041Z,10.08
2018-12-27T06:55:26.493Z,11.00
2018-12-27T06:56:04.501Z,11.08
2018-12-27T06:56:42.375Z,12.60
2018-12-27T06:57:20.173Z,10.65
2018-12-27T06:57:57.642Z,10.55
2018-12-27T06:58:37.864Z,12.85
2018-12-27T06:59:14.374Z,11.60
2018-12-27T06:59:52.125Z,12.00
2018-12-27T07:00:32.113Z,12.78
2018-12-27T07:01:10.267Z,11.40
2018-12-27T07:01:48.289Z,11.57
2018-12-27T07:02:25.007Z,11.75
2018-12-27T07:03:02.583Z,10.85
2018-12-27T07:03:40.819Z,12.00
2018-12-27T07:04:18.253Z,10.48
2018-12-27T07:04:55.945Z,10.65
2018-12-27T07:05:37.827Z,11.10
2018-12-27T07:06:16.225Z,11.08
2018-12-27T07:06:53.697Z,11.55
2018-12-27T07:07:31.181Z,12.23
2018-12-27T07:08:08.870Z,12.00
2018-12-27T07:08:46.237Z,11.10
2018-12-27T07:09:24.666Z,11.65
2018-12-27T07:10:02.136Z,13.28
2018-12-27T07:10:39.609Z,11.20
2018-12-27T07:11:17.094Z,11.78
2018-12-27T07:11:56.332Z,11.90
2018-12-27T07:12:33.278Z,12.53
2018-12-27T07:13:10.694Z,12.10
2018-12-27T07:13:48.163Z,12.43
2018-12-27T07:14:25.137Z,12.18
2018-12-27T07:15:02.788Z,12.13
2018-12-27T07:15:40.483Z,13.90
2018-12-27T07:16:17.944Z,12.65
2018-12-27T07:16:55.653Z,12.47
2018-12-27T07:17:33.097Z,13.30
2018-12-27T07:18:10.713Z,12.63
2018-12-27T07:18:48.166Z,12.88
2018-12-27T07:19:25.242Z,12.00
2018-12-27T07:20:02.843Z,13.35
2018-12-27T07:20:39.912Z,12.45
2018-12-27T07:21:17.573Z,12.45
2018-12-27T07:21:54.676Z,13.13
2018-12-27T07:22:32.378Z,14.58
2018-12-27T07:23:10.137Z,12.05
2018-12-27T07:23:48.154Z,13.50
2018-12-27T07:24:26.110Z,14.07
2018-12-27T07:25:03.830Z,14.15
2018-12-27T07:25:42.013Z,14.18
2018-12-27T07:26:20.079Z,13.80
2018-12-27T07:26:57.789Z,12.58
2018-12-27T07:27:54.361Z,13.93
2018-12-27T07:28:32.021Z,13.90
2018-12-27T07:29:09.348Z,13.40
2018-12-27T07:29:46.692Z,15.40
2018-12-27T07:30:24.173Z,14.07
2018-12-27T07:31:02.128Z,14.90
2018-12-27T07:31:40.081Z,15.35
2018-12-27T07:32:17.709Z,13.72
2018-12-27T07:32:55.368Z,14.90
2018-12-27T07:33:33.420Z,15.15
2018-12-27T07:34:10.839Z,14.78
2018-12-27T07:34:56.289Z,14.93
2018-12-27T07:35:27.991Z,14.10
2018-12-27T07:36:05.735Z,14.60
2018-12-27T07:36:43.577Z,14.70
2018-12-27T07:37:21.471Z,14.15
2018-12-27T07:37:59.149Z,14.70
2018-12-27T07:38:36.921Z,14.43
2018-12-27T07:39:14.720Z,14.80
2018-12-27T07:39:52.429Z,14.30
2018-12-27T07:40:30.501Z,14.75
2018-12-27T07:41:07.978Z,14.50
2018-12-27T07:41:45.703Z,14.40
2018-12-27T07:42:23.556Z,15.13
2018-12-27T07:43:01.217Z,15.48
2018-12-27T07:43:39.787Z,14.40
2018-12-27T07:44:16.738Z,14.00
2018-12-27T07:44:54.185Z,14.33
2018-12-27T07:45:31.965Z,15.03
2018-12-27T07:46:11.050Z,14.05
2018-12-27T07:46:48.721Z,12.88
2018-12-27T07:47:27.168Z,13.72
2018-12-27T07:48:05.427Z,14.90
2018-12-27T07:48:43.174Z,14.87
2018-12-27T07:49:21.183Z,13.28
2018-12-27T07:49:59.259Z,14.03
2018-12-27T07:50:37.492Z,14.95
2018-12-27T07:51:23.825Z,14.38
2018-12-27T07:52:02.037Z,14.50
2018-12-27T07:52:39.765Z,14.70
2018-12-27T07:53:18.236Z,16.62
2018-12-27T07:53:56.013Z,14.58
2018-12-27T07:54:34.089Z,14.75
2018-12-27T07:55:11.487Z,16.35
2018-12-27T07:55:50.005Z,15.65
2018-12-27T07:56:28.225Z,14.35
2018-12-27T07:57:06.524Z,14.70
2018-12-27T07:57:44.850Z,14.58
2018-12-27T07:58:22.400Z,15.32
2018-12-27T07:59:00.217Z,14.35
2018-12-27T07:59:37.304Z,14.68
2018-12-27T08:00:15.067Z,14.28
2018-12-27T08:00:52.653Z,14.98
2018-12-27T08:01:30.747Z,15.10
2018-12-27T08:02:08.459Z,15.20
2018-12-27T08:02:45.962Z,14.58
2018-12-27T08:03:23.607Z,16.05
2018-12-27T08:04:00.726Z,13.53
2018-12-27T08:04:37.894Z,14.83
2018-12-27T08:05:15.633Z,14.47
2018-12-27T08:05:53.091Z,15.32
2018-12-27T08:06:30.888Z,13.00
2018-12-27T08:07:08.356Z,15.18
2018-12-27T08:07:46.349Z,15.18
2018-12-27T08:08:24.131Z,15.15
2018-12-27T08:09:01.689Z,14.40
2018-12-27T08:09:39.123Z,14.13
2018-12-27T08:10:17.204Z,14.38
2018-12-27T08:10:54.968Z,14.70
2018-12-27T08:11:32.366Z,12.75
2018-12-27T08:12:10.301Z,15.88